sensor_id;sensor_type;location;lat;lon;timestamp;P1;durP1;ratioP1;P2;durP2;ratioP2
26325;SDS011;14032;52.510;7.342;2024-03-25T00:00:40;20.05;;;3.80;;
26325;SDS011;14032;52.510;7.342;2024-03-25T00:03:06;18.58;;;3.88;;
26325;SDS011;14032;52.510;7.342;2024-03-25T00:05:31;26.58;;;3.58;;
26325;SDS011;14032;52.510;7.342;2024-03-25T00:07:57;18.65;;;3.35;;
26325;SDS011;14032;52.510;7.342;2024-03-25T00:10:23;20.63;;;4.43;;
26325;SDS011;14032;52.510;7.342;2024-03-25T00:12:49;16.35;;;2.92;;
26325;SDS011;14032;52.510;7.342;2024-03-25T00:15:19;25.95;;;3.67;;
26325;SDS011;14032;52.510;7.342;2024-03-25T00:17:45;27.17;;;3.40;;
26325;SDS011;14032;52.510;7.342;2024-03-25T00:20:12;21.92;;;4.38;;
26325;SDS011;14032;52.510;7.342;2024-03-25T00:22:38;19.77;;;3.38;;
26325;SDS011;14032;52.510;7.342;2024-03-25T00:25:04;23.02;;;3.60;;
26325;SDS011;14032;52.510;7.342;2024-03-25T00:27:30;22.77;;;3.15;;
26325;SDS011;14032;52.510;7.342;2024-03-25T00:29:56;23.67;;;3.78;;
26325;SDS011;14032;52.510;7.342;2024-03-25T00:32:21;26.80;;;4.00;;
26325;SDS011;14032;52.510;7.342;2024-03-25T00:34:47;22.33;;;4.10;;
26325;SDS011;14032;52.510;7.342;2024-03-25T00:37:12;26.05;;;3.80;;
26325;SDS011;14032;52.510;7.342;2024-03-25T00:39:38;17.75;;;3.13;;
26325;SDS011;14032;52.510;7.342;2024-03-25T00:42:04;22.30;;;3.80;;
26325;SDS011;14032;52.510;7.342;2024-03-25T00:44:29;19.77;;;3.50;;
26325;SDS011;14032;52.510;7.342;2024-03-25T00:46:55;18.35;;;3.35;;
26325;SDS011;14032;52.510;7.342;2024-03-25T00:49:21;16.17;;;3.20;;
26325;SDS011;14032;52.510;7.342;2024-03-25T00:51:46;16.25;;;3.28;;
26325;SDS011;14032;52.510;7.342;2024-03-25T00:54:12;21.05;;;3.25;;
26325;SDS011;14032;52.510;7.342;2024-03-25T00:56:38;20.10;;;4.03;;
26325;SDS011;14032;52.510;7.342;2024-03-25T00:59:03;20.25;;;3.25;;
26325;SDS011;14032;52.510;7.342;2024-03-25T01:01:31;22.23;;;3.08;;
26325;SDS011;14032;52.510;7.342;2024-03-25T01:04:01;22.20;;;3.33;;
26325;SDS011;14032;52.510;7.342;2024-03-25T01:06:29;17.73;;;3.50;;
26325;SDS011;14032;52.510;7.342;2024-03-25T01:08:55;21.63;;;4.70;;
26325;SDS011;14032;52.510;7.342;2024-03-25T01:11:21;17.45;;;3.28;;
26325;SDS011;14032;52.510;7.342;2024-03-25T01:13:47;16.05;;;2.83;;
26325;SDS011;14032;52.510;7.342;2024-03-25T01:16:13;23.08;;;3.60;;
26325;SDS011;14032;52.510;7.342;2024-03-25T01:18:38;22.10;;;3.17;;
26325;SDS011;14032;52.510;7.342;2024-03-25T01:21:04;24.58;;;4.43;;
26325;SDS011;14032;52.510;7.342;2024-03-25T01:23:30;19.40;;;3.40;;
26325;SDS011;14032;52.510;7.342;2024-03-25T01:25:55;19.50;;;3.42;;
26325;SDS011;14032;52.510;7.342;2024-03-25T01:28:21;16.02;;;3.33;;
26325;SDS011;14032;52.510;7.342;2024-03-25T01:30:47;18.38;;;3.13;;
26325;SDS011;14032;52.510;7.342;2024-03-25T01:33:13;23.80;;;3.53;;
26325;SDS011;14032;52.510;7.342;2024-03-25T01:35:40;15.85;;;3.40;;
26325;SDS011;14032;52.510;7.342;2024-03-25T01:38:05;25.52;;;4.15;;
26325;SDS011;14032;52.510;7.342;2024-03-25T01:40:31;24.42;;;3.85;;
26325;SDS011;14032;52.510;7.342;2024-03-25T01:45:23;19.10;;;4.45;;
26325;SDS011;14032;52.510;7.342;2024-03-25T01:47:56;19.45;;;3.65;;
26325;SDS011;14032;52.510;7.342;2024-03-25T01:50:23;18.35;;;3.30;;
26325;SDS011;14032;52.510;7.342;2024-03-25T01:52:50;20.92;;;3.75;;
26325;SDS011;14032;52.510;7.342;2024-03-25T01:55:19;25.20;;;4.18;;
26325;SDS011;14032;52.510;7.342;2024-03-25T01:57:46;25.67;;;4.40;;
26325;SDS011;14032;52.510;7.342;2024-03-25T02:00:12;27.27;;;4.07;;
26325;SDS011;14032;52.510;7.342;2024-03-25T02:02:41;20.85;;;4.40;;
26325;SDS011;14032;52.510;7.342;2024-03-25T02:05:09;25.70;;;3.72;;
26325;SDS011;14032;52.510;7.342;2024-03-25T02:07:36;20.02;;;3.15;;
26325;SDS011;14032;52.510;7.342;2024-03-25T02:10:02;27.02;;;4.00;;
26325;SDS011;14032;52.510;7.342;2024-03-25T02:12:29;18.23;;;3.53;;
26325;SDS011;14032;52.510;7.342;2024-03-25T02:14:56;23.70;;;3.20;;
26325;SDS011;14032;52.510;7.342;2024-03-25T02:17:23;21.05;;;3.45;;
26325;SDS011;14032;52.510;7.342;2024-03-25T02:19:49;21.63;;;3.55;;
26325;SDS011;14032;52.510;7.342;2024-03-25T02:22:15;33.35;;;4.45;;
26325;SDS011;14032;52.510;7.342;2024-03-25T02:24:41;24.88;;;3.80;;
26325;SDS011;14032;52.510;7.342;2024-03-25T02:27:08;28.52;;;4.13;;
26325;SDS011;14032;52.510;7.342;2024-03-25T02:29:39;25.30;;;3.70;;
26325;SDS011;14032;52.510;7.342;2024-03-25T02:32:05;21.25;;;3.80;;
26325;SDS011;14032;52.510;7.342;2024-03-25T02:34:35;21.67;;;3.22;;
26325;SDS011;14032;52.510;7.342;2024-03-25T02:37:11;21.92;;;3.28;;
26325;SDS011;14032;52.510;7.342;2024-03-25T02:39:37;26.65;;;4.05;;
26325;SDS011;14032;52.510;7.342;2024-03-25T02:42:03;24.63;;;3.17;;
26325;SDS011;14032;52.510;7.342;2024-03-25T02:44:29;20.27;;;3.80;;
26325;SDS011;14032;52.510;7.342;2024-03-25T02:46:56;24.35;;;3.53;;
26325;SDS011;14032;52.510;7.342;2024-03-25T02:49:22;29.48;;;3.75;;
26325;SDS011;14032;52.510;7.342;2024-03-25T02:51:48;18.55;;;2.95;;
26325;SDS011;14032;52.510;7.342;2024-03-25T02:54:14;15.93;;;3.30;;
26325;SDS011;14032;52.510;7.342;2024-03-25T02:56:40;27.25;;;3.47;;
26325;SDS011;14032;52.510;7.342;2024-03-25T02:59:07;24.55;;;3.38;;
26325;SDS011;14032;52.510;7.342;2024-03-25T03:01:32;26.33;;;5.13;;
26325;SDS011;14032;52.510;7.342;2024-03-25T03:03:58;28.45;;;3.90;;
26325;SDS011;14032;52.510;7.342;2024-03-25T03:06:23;24.85;;;3.85;;
26325;SDS011;14032;52.510;7.342;2024-03-25T03:08:49;30.98;;;4.05;;
26325;SDS011;14032;52.510;7.342;2024-03-25T03:11:15;15.40;;;3.35;;
26325;SDS011;14032;52.510;7.342;2024-03-25T03:13:40;20.48;;;3.38;;
26325;SDS011;14032;52.510;7.342;2024-03-25T03:16:06;32.63;;;4.28;;
26325;SDS011;14032;52.510;7.342;2024-03-25T03:18:31;21.98;;;3.50;;
26325;SDS011;14032;52.510;7.342;2024-03-25T03:20:57;20.33;;;3.22;;
26325;SDS011;14032;52.510;7.342;2024-03-25T03:23:23;36.55;;;4.50;;
26325;SDS011;14032;52.510;7.342;2024-03-25T03:25:49;23.08;;;3.88;;
26325;SDS011;14032;52.510;7.342;2024-03-25T03:28:15;22.35;;;3.25;;
26325;SDS011;14032;52.510;7.342;2024-03-25T03:30:41;19.05;;;3.53;;
26325;SDS011;14032;52.510;7.342;2024-03-25T03:33:07;30.00;;;3.92;;
26325;SDS011;14032;52.510;7.342;2024-03-25T03:35:33;37.38;;;4.43;;
26325;SDS011;14032;52.510;7.342;2024-03-25T03:37:59;23.48;;;3.45;;
26325;SDS011;14032;52.510;7.342;2024-03-25T03:40:25;21.33;;;3.45;;
26325;SDS011;14032;52.510;7.342;2024-03-25T03:42:50;27.05;;;3.67;;
26325;SDS011;14032;52.510;7.342;2024-03-25T03:45:17;17.58;;;3.20;;
26325;SDS011;14032;52.510;7.342;2024-03-25T03:47:43;21.20;;;3.35;;
26325;SDS011;14032;52.510;7.342;2024-03-25T03:50:09;22.88;;;3.53;;
26325;SDS011;14032;52.510;7.342;2024-03-25T03:52:36;20.23;;;3.40;;
26325;SDS011;14032;52.510;7.342;2024-03-25T03:55:01;19.45;;;3.70;;
26325;SDS011;14032;52.510;7.342;2024-03-25T03:57:27;24.98;;;3.83;;
26325;SDS011;14032;52.510;7.342;2024-03-25T03:59:53;20.17;;;3.03;;
26325;SDS011;14032;52.510;7.342;2024-03-25T04:02:18;21.90;;;3.80;;
26325;SDS011;14032;52.510;7.342;2024-03-25T04:04:45;32.95;;;4.35;;
26325;SDS011;14032;52.510;7.342;2024-03-25T04:07:12;21.50;;;3.67;;
26325;SDS011;14032;52.510;7.342;2024-03-25T04:09:39;21.40;;;3.42;;
26325;SDS011;14032;52.510;7.342;2024-03-25T04:12:05;24.05;;;3.35;;
26325;SDS011;14032;52.510;7.342;2024-03-25T04:14:30;29.50;;;4.35;;
26325;SDS011;14032;52.510;7.342;2024-03-25T04:16:58;26.55;;;4.38;;
26325;SDS011;14032;52.510;7.342;2024-03-25T04:19:24;22.58;;;3.15;;
26325;SDS011;14032;52.510;7.342;2024-03-25T04:21:50;21.30;;;4.00;;
26325;SDS011;14032;52.510;7.342;2024-03-25T04:24:16;26.42;;;3.60;;
26325;SDS011;14032;52.510;7.342;2024-03-25T04:26:44;27.40;;;4.07;;
26325;SDS011;14032;52.510;7.342;2024-03-25T04:29:10;24.35;;;4.20;;
26325;SDS011;14032;52.510;7.342;2024-03-25T04:31:36;28.30;;;3.58;;
26325;SDS011;14032;52.510;7.342;2024-03-25T04:34:02;32.17;;;3.97;;
26325;SDS011;14032;52.510;7.342;2024-03-25T04:36:29;34.10;;;4.00;;
26325;SDS011;14032;52.510;7.342;2024-03-25T04:38:55;21.80;;;3.75;;
26325;SDS011;14032;52.510;7.342;2024-03-25T04:41:21;23.17;;;4.05;;
26325;SDS011;14032;52.510;7.342;2024-03-25T04:43:46;21.63;;;3.47;;
26325;SDS011;14032;52.510;7.342;2024-03-25T04:46:12;23.98;;;3.80;;
26325;SDS011;14032;52.510;7.342;2024-03-25T04:48:37;28.83;;;3.80;;
26325;SDS011;14032;52.510;7.342;2024-03-25T04:51:03;27.13;;;3.97;;
26325;SDS011;14032;52.510;7.342;2024-03-25T04:53:29;29.27;;;4.25;;
26325;SDS011;14032;52.510;7.342;2024-03-25T04:55:55;22.27;;;3.42;;
26325;SDS011;14032;52.510;7.342;2024-03-25T04:58:21;21.70;;;3.45;;
26325;SDS011;14032;52.510;7.342;2024-03-25T05:00:47;21.30;;;3.90;;
26325;SDS011;14032;52.510;7.342;2024-03-25T05:03:12;30.85;;;3.55;;
26325;SDS011;14032;52.510;7.342;2024-03-25T05:05:38;22.15;;;3.80;;
26325;SDS011;14032;52.510;7.342;2024-03-25T05:08:03;24.60;;;4.25;;
26325;SDS011;14032;52.510;7.342;2024-03-25T05:10:29;24.60;;;3.60;;
26325;SDS011;14032;52.510;7.342;2024-03-25T05:12:55;22.23;;;3.67;;
26325;SDS011;14032;52.510;7.342;2024-03-25T05:15:22;30.30;;;3.92;;
26325;SDS011;14032;52.510;7.342;2024-03-25T05:17:48;30.05;;;3.80;;
26325;SDS011;14032;52.510;7.342;2024-03-25T05:20:13;29.83;;;4.05;;
26325;SDS011;14032;52.510;7.342;2024-03-25T05:22:39;26.77;;;3.85;;
26325;SDS011;14032;52.510;7.342;2024-03-25T05:25:05;26.20;;;3.90;;
26325;SDS011;14032;52.510;7.342;2024-03-25T05:27:30;22.73;;;3.72;;
26325;SDS011;14032;52.510;7.342;2024-03-25T05:29:56;18.75;;;4.03;;
26325;SDS011;14032;52.510;7.342;2024-03-25T05:32:22;24.95;;;4.28;;
26325;SDS011;14032;52.510;7.342;2024-03-25T05:34:47;19.80;;;3.75;;
26325;SDS011;14032;52.510;7.342;2024-03-25T05:37:13;25.42;;;4.93;;
26325;SDS011;14032;52.510;7.342;2024-03-25T05:39:39;28.48;;;5.15;;
26325;SDS011;14032;52.510;7.342;2024-03-25T05:42:05;19.67;;;3.65;;
26325;SDS011;14032;52.510;7.342;2024-03-25T05:44:31;18.02;;;3.38;;
26325;SDS011;14032;52.510;7.342;2024-03-25T05:46:56;25.98;;;3.67;;
26325;SDS011;14032;52.510;7.342;2024-03-25T05:49:22;22.20;;;3.45;;
26325;SDS011;14032;52.510;7.342;2024-03-25T05:51:48;25.45;;;4.25;;
26325;SDS011;14032;52.510;7.342;2024-03-25T05:54:13;24.45;;;3.75;;
26325;SDS011;14032;52.510;7.342;2024-03-25T05:56:39;23.08;;;3.55;;
26325;SDS011;14032;52.510;7.342;2024-03-25T05:59:05;29.83;;;4.00;;
26325;SDS011;14032;52.510;7.342;2024-03-25T06:01:31;26.33;;;4.10;;
26325;SDS011;14032;52.510;7.342;2024-03-25T06:03:58;19.88;;;3.50;;
26325;SDS011;14032;52.510;7.342;2024-03-25T06:06:24;21.52;;;3.83;;
26325;SDS011;14032;52.510;7.342;2024-03-25T06:08:50;30.17;;;3.47;;
26325;SDS011;14032;52.510;7.342;2024-03-25T06:11:15;29.38;;;4.22;;
26325;SDS011;14032;52.510;7.342;2024-03-25T06:13:45;28.23;;;4.22;;
26325;SDS011;14032;52.510;7.342;2024-03-25T06:16:12;24.63;;;3.58;;
26325;SDS011;14032;52.510;7.342;2024-03-25T06:18:38;24.77;;;3.58;;
26325;SDS011;14032;52.510;7.342;2024-03-25T06:21:05;24.52;;;4.03;;
26325;SDS011;14032;52.510;7.342;2024-03-25T06:23:31;25.30;;;4.35;;
26325;SDS011;14032;52.510;7.342;2024-03-25T06:25:57;26.58;;;4.57;;
26325;SDS011;14032;52.510;7.342;2024-03-25T06:28:23;28.20;;;4.35;;
26325;SDS011;14032;52.510;7.342;2024-03-25T06:30:49;24.27;;;4.03;;
26325;SDS011;14032;52.510;7.342;2024-03-25T06:33:34;36.20;;;4.38;;
26325;SDS011;14032;52.510;7.342;2024-03-25T06:36:19;22.33;;;3.80;;
26325;SDS011;14032;52.510;7.342;2024-03-25T06:38:45;25.85;;;4.10;;
26325;SDS011;14032;52.510;7.342;2024-03-25T06:41:10;31.10;;;4.22;;
26325;SDS011;14032;52.510;7.342;2024-03-25T06:43:36;21.83;;;3.33;;
26325;SDS011;14032;52.510;7.342;2024-03-25T06:46:06;26.65;;;4.05;;
26325;SDS011;14032;52.510;7.342;2024-03-25T06:48:32;26.50;;;3.90;;
26325;SDS011;14032;52.510;7.342;2024-03-25T06:50:59;27.80;;;4.65;;
26325;SDS011;14032;52.510;7.342;2024-03-25T06:53:25;29.30;;;4.78;;
26325;SDS011;14032;52.510;7.342;2024-03-25T06:58:24;20.80;;;3.97;;
26325;SDS011;14032;52.510;7.342;2024-03-25T07:00:51;24.08;;;4.90;;
26325;SDS011;14032;52.510;7.342;2024-03-25T07:03:20;22.90;;;3.55;;
26325;SDS011;14032;52.510;7.342;2024-03-25T07:05:47;23.73;;;3.90;;
26325;SDS011;14032;52.510;7.342;2024-03-25T07:08:14;23.52;;;4.45;;
26325;SDS011;14032;52.510;7.342;2024-03-25T07:10:44;17.15;;;3.33;;
26325;SDS011;14032;52.510;7.342;2024-03-25T07:13:10;21.33;;;4.10;;
26325;SDS011;14032;52.510;7.342;2024-03-25T07:15:36;22.33;;;4.00;;
26325;SDS011;14032;52.510;7.342;2024-03-25T07:18:02;25.27;;;3.63;;
26325;SDS011;14032;52.510;7.342;2024-03-25T07:20:28;20.38;;;3.92;;
26325;SDS011;14032;52.510;7.342;2024-03-25T07:22:54;16.90;;;3.75;;
26325;SDS011;14032;52.510;7.342;2024-03-25T07:25:20;22.20;;;3.63;;
26325;SDS011;14032;52.510;7.342;2024-03-25T07:27:46;22.98;;;3.78;;
26325;SDS011;14032;52.510;7.342;2024-03-25T07:30:13;24.33;;;4.22;;
26325;SDS011;14032;52.510;7.342;2024-03-25T07:32:39;25.55;;;3.90;;
26325;SDS011;14032;52.510;7.342;2024-03-25T07:35:04;18.70;;;3.08;;
26325;SDS011;14032;52.510;7.342;2024-03-25T07:37:32;18.98;;;3.20;;
26325;SDS011;14032;52.510;7.342;2024-03-25T07:39:58;21.23;;;2.70;;
26325;SDS011;14032;52.510;7.342;2024-03-25T07:42:24;17.13;;;3.03;;
26325;SDS011;14032;52.510;7.342;2024-03-25T07:44:49;16.05;;;3.20;;
26325;SDS011;14032;52.510;7.342;2024-03-25T07:47:15;23.33;;;4.55;;
26325;SDS011;14032;52.510;7.342;2024-03-25T07:49:40;26.88;;;4.20;;
26325;SDS011;14032;52.510;7.342;2024-03-25T07:52:06;19.40;;;3.85;;
26325;SDS011;14032;52.510;7.342;2024-03-25T07:54:32;21.08;;;3.92;;
26325;SDS011;14032;52.510;7.342;2024-03-25T07:56:57;17.85;;;3.38;;
26325;SDS011;14032;52.510;7.342;2024-03-25T07:59:23;17.92;;;3.90;;
26325;SDS011;14032;52.510;7.342;2024-03-25T08:01:49;24.00;;;3.90;;
26325;SDS011;14032;52.510;7.342;2024-03-25T08:04:14;19.85;;;3.60;;
26325;SDS011;14032;52.510;7.342;2024-03-25T08:06:40;16.10;;;3.70;;
26325;SDS011;14032;52.510;7.342;2024-03-25T08:09:06;19.55;;;3.83;;
26325;SDS011;14032;52.510;7.342;2024-03-25T08:11:32;17.98;;;3.33;;
26325;SDS011;14032;52.510;7.342;2024-03-25T08:13:58;19.50;;;3.67;;
26325;SDS011;14032;52.510;7.342;2024-03-25T08:16:24;22.80;;;4.68;;
26325;SDS011;14032;52.510;7.342;2024-03-25T08:18:50;17.92;;;3.17;;
26325;SDS011;14032;52.510;7.342;2024-03-25T08:21:16;15.32;;;3.70;;
26325;SDS011;14032;52.510;7.342;2024-03-25T08:23:44;22.88;;;3.25;;
26325;SDS011;14032;52.510;7.342;2024-03-25T08:26:10;21.40;;;4.63;;
26325;SDS011;14032;52.510;7.342;2024-03-25T08:28:36;19.33;;;3.75;;
26325;SDS011;14032;52.510;7.342;2024-03-25T08:31:01;19.40;;;3.50;;
26325;SDS011;14032;52.510;7.342;2024-03-25T08:33:27;17.58;;;3.40;;
26325;SDS011;14032;52.510;7.342;2024-03-25T08:35:53;13.02;;;3.40;;
26325;SDS011;14032;52.510;7.342;2024-03-25T08:38:19;21.58;;;4.40;;
26325;SDS011;14032;52.510;7.342;2024-03-25T08:40:44;18.83;;;3.47;;
26325;SDS011;14032;52.510;7.342;2024-03-25T08:43:10;20.05;;;4.03;;
26325;SDS011;14032;52.510;7.342;2024-03-25T08:45:36;19.08;;;2.92;;
26325;SDS011;14032;52.510;7.342;2024-03-25T08:48:01;18.00;;;3.15;;
26325;SDS011;14032;52.510;7.342;2024-03-25T08:50:27;16.05;;;2.70;;
26325;SDS011;14032;52.510;7.342;2024-03-25T08:52:52;20.60;;;4.45;;
26325;SDS011;14032;52.510;7.342;2024-03-25T08:55:19;16.42;;;3.22;;
26325;SDS011;14032;52.510;7.342;2024-03-25T08:57:45;16.70;;;3.50;;
26325;SDS011;14032;52.510;7.342;2024-03-25T09:00:11;23.58;;;3.88;;
26325;SDS011;14032;52.510;7.342;2024-03-25T09:02:37;17.85;;;3.50;;
26325;SDS011;14032;52.510;7.342;2024-03-25T09:05:02;23.67;;;3.47;;
26325;SDS011;14032;52.510;7.342;2024-03-25T09:07:30;16.23;;;3.13;;
26325;SDS011;14032;52.510;7.342;2024-03-25T09:09:56;15.77;;;3.05;;
26325;SDS011;14032;52.510;7.342;2024-03-25T09:12:51;17.35;;;4.00;;
26325;SDS011;14032;52.510;7.342;2024-03-25T09:15:16;21.08;;;2.90;;
26325;SDS011;14032;52.510;7.342;2024-03-25T09:17:42;18.92;;;3.65;;
26325;SDS011;14032;52.510;7.342;2024-03-25T09:20:08;16.52;;;3.08;;
26325;SDS011;14032;52.510;7.342;2024-03-25T09:22:42;19.63;;;3.85;;
26325;SDS011;14032;52.510;7.342;2024-03-25T09:25:10;19.73;;;3.17;;
26325;SDS011;14032;52.510;7.342;2024-03-25T09:27:36;16.58;;;2.78;;
26325;SDS011;14032;52.510;7.342;2024-03-25T09:30:02;24.58;;;3.83;;
26325;SDS011;14032;52.510;7.342;2024-03-25T09:32:29;16.65;;;4.00;;
26325;SDS011;14032;52.510;7.342;2024-03-25T09:34:56;22.10;;;3.65;;
26325;SDS011;14032;52.510;7.342;2024-03-25T09:37:22;14.90;;;2.85;;
26325;SDS011;14032;52.510;7.342;2024-03-25T09:39:47;10.73;;;2.70;;
26325;SDS011;14032;52.510;7.342;2024-03-25T09:42:18;17.13;;;3.22;;
26325;SDS011;14032;52.510;7.342;2024-03-25T09:44:51;16.25;;;2.50;;
26325;SDS011;14032;52.510;7.342;2024-03-25T09:47:18;18.85;;;3.28;;
26325;SDS011;14032;52.510;7.342;2024-03-25T09:49:44;16.48;;;2.90;;
26325;SDS011;14032;52.510;7.342;2024-03-25T09:52:11;13.15;;;2.05;;
26325;SDS011;14032;52.510;7.342;2024-03-25T09:54:37;17.75;;;3.60;;
26325;SDS011;14032;52.510;7.342;2024-03-25T09:57:02;19.23;;;2.78;;
26325;SDS011;14032;52.510;7.342;2024-03-25T09:59:29;15.30;;;3.50;;
26325;SDS011;14032;52.510;7.342;2024-03-25T10:01:55;20.10;;;2.95;;
26325;SDS011;14032;52.510;7.342;2024-03-25T10:04:23;17.58;;;3.00;;
26325;SDS011;14032;52.510;7.342;2024-03-25T10:06:49;16.35;;;2.30;;
26325;SDS011;14032;52.510;7.342;2024-03-25T10:09:18;16.27;;;3.17;;
26325;SDS011;14032;52.510;7.342;2024-03-25T10:11:50;15.77;;;2.83;;
26325;SDS011;14032;52.510;7.342;2024-03-25T10:14:16;17.58;;;4.35;;
26325;SDS011;14032;52.510;7.342;2024-03-25T10:16:42;21.40;;;3.83;;
26325;SDS011;14032;52.510;7.342;2024-03-25T10:19:08;15.50;;;2.40;;
26325;SDS011;14032;52.510;7.342;2024-03-25T10:21:34;16.88;;;3.38;;
26325;SDS011;14032;52.510;7.342;2024-03-25T10:24:00;13.23;;;2.85;;
26325;SDS011;14032;52.510;7.342;2024-03-25T10:26:27;16.08;;;2.90;;
26325;SDS011;14032;52.510;7.342;2024-03-25T10:29:03;17.48;;;2.78;;
26325;SDS011;14032;52.510;7.342;2024-03-25T10:33:55;12.43;;;2.38;;
26325;SDS011;14032;52.510;7.342;2024-03-25T10:36:21;13.13;;;2.30;;
26325;SDS011;14032;52.510;7.342;2024-03-25T10:38:49;15.15;;;2.10;;
26325;SDS011;14032;52.510;7.342;2024-03-25T10:41:21;10.98;;;1.88;;
26325;SDS011;14032;52.510;7.342;2024-03-25T10:43:48;12.15;;;2.05;;
26325;SDS011;14032;52.510;7.342;2024-03-25T10:46:23;10.23;;;2.00;;
26325;SDS011;14032;52.510;7.342;2024-03-25T10:51:35;13.23;;;1.83;;
26325;SDS011;14032;52.510;7.342;2024-03-25T10:54:02;11.50;;;1.63;;
26325;SDS011;14032;52.510;7.342;2024-03-25T10:56:31;11.90;;;1.73;;
26325;SDS011;14032;52.510;7.342;2024-03-25T10:58:57;15.60;;;1.60;;
26325;SDS011;14032;52.510;7.342;2024-03-25T11:01:24;10.38;;;2.15;;
26325;SDS011;14032;52.510;7.342;2024-03-25T11:03:50;12.15;;;1.67;;
26325;SDS011;14032;52.510;7.342;2024-03-25T11:06:16;12.30;;;1.65;;
26325;SDS011;14032;52.510;7.342;2024-03-25T11:08:42;8.82;;;1.40;;
26325;SDS011;14032;52.510;7.342;2024-03-25T11:11:12;11.48;;;2.33;;
26325;SDS011;14032;52.510;7.342;2024-03-25T11:13:38;10.77;;;1.70;;
26325;SDS011;14032;52.510;7.342;2024-03-25T11:16:04;7.05;;;1.95;;
26325;SDS011;14032;52.510;7.342;2024-03-25T11:18:32;10.95;;;1.90;;
26325;SDS011;14032;52.510;7.342;2024-03-25T11:21:05;11.15;;;2.00;;
26325;SDS011;14032;52.510;7.342;2024-03-25T11:23:40;11.18;;;1.95;;
26325;SDS011;14032;52.510;7.342;2024-03-25T11:26:24;8.27;;;1.75;;
26325;SDS011;14032;52.510;7.342;2024-03-25T11:28:52;12.20;;;2.37;;
26325;SDS011;14032;52.510;7.342;2024-03-25T11:31:20;12.13;;;2.70;;
26325;SDS011;14032;52.510;7.342;2024-03-25T11:33:49;13.02;;;2.85;;
26325;SDS011;14032;52.510;7.342;2024-03-25T11:36:15;8.10;;;1.95;;
26325;SDS011;14032;52.510;7.342;2024-03-25T11:38:43;12.07;;;1.92;;
26325;SDS011;14032;52.510;7.342;2024-03-25T11:41:09;9.80;;;1.80;;
26325;SDS011;14032;52.510;7.342;2024-03-25T11:43:36;15.32;;;1.88;;
26325;SDS011;14032;52.510;7.342;2024-03-25T11:46:02;11.75;;;2.10;;
26325;SDS011;14032;52.510;7.342;2024-03-25T11:48:31;9.55;;;1.90;;
26325;SDS011;14032;52.510;7.342;2024-03-25T11:50:57;11.25;;;2.15;;
26325;SDS011;14032;52.510;7.342;2024-03-25T11:53:23;11.73;;;1.77;;
26325;SDS011;14032;52.510;7.342;2024-03-25T11:55:48;13.05;;;2.03;;
26325;SDS011;14032;52.510;7.342;2024-03-25T11:58:14;11.48;;;2.28;;
26325;SDS011;14032;52.510;7.342;2024-03-25T12:00:47;5.88;;;1.08;;
26325;SDS011;14032;52.510;7.342;2024-03-25T12:03:18;6.20;;;1.40;;
26325;SDS011;14032;52.510;7.342;2024-03-25T12:05:44;12.18;;;1.63;;
26325;SDS011;14032;52.510;7.342;2024-03-25T12:08:10;8.63;;;1.48;;
26325;SDS011;14032;52.510;7.342;2024-03-25T12:10:37;6.88;;;1.98;;
26325;SDS011;14032;52.510;7.342;2024-03-25T12:13:21;10.35;;;1.45;;
26325;SDS011;14032;52.510;7.342;2024-03-25T12:15:47;11.10;;;1.63;;
26325;SDS011;14032;52.510;7.342;2024-03-25T12:18:16;11.45;;;1.92;;
26325;SDS011;14032;52.510;7.342;2024-03-25T12:20:45;10.20;;;2.10;;
26325;SDS011;14032;52.510;7.342;2024-03-25T12:23:11;11.80;;;2.17;;
26325;SDS011;14032;52.510;7.342;2024-03-25T12:25:36;8.05;;;1.75;;
26325;SDS011;14032;52.510;7.342;2024-03-25T12:28:07;11.52;;;2.00;;
26325;SDS011;14032;52.510;7.342;2024-03-25T12:30:40;8.05;;;1.70;;
26325;SDS011;14032;52.510;7.342;2024-03-25T12:33:15;11.68;;;1.98;;
26325;SDS011;14032;52.510;7.342;2024-03-25T12:35:41;10.82;;;1.95;;
26325;SDS011;14032;52.510;7.342;2024-03-25T12:38:07;9.25;;;2.05;;
26325;SDS011;14032;52.510;7.342;2024-03-25T12:40:32;9.80;;;2.08;;
26325;SDS011;14032;52.510;7.342;2024-03-25T12:42:58;7.90;;;1.80;;
26325;SDS011;14032;52.510;7.342;2024-03-25T12:45:24;9.90;;;1.85;;
26325;SDS011;14032;52.510;7.342;2024-03-25T12:47:50;9.98;;;1.90;;
26325;SDS011;14032;52.510;7.342;2024-03-25T12:50:16;9.85;;;1.85;;
26325;SDS011;14032;52.510;7.342;2024-03-25T12:52:41;7.53;;;1.42;;
26325;SDS011;14032;52.510;7.342;2024-03-25T12:55:07;7.43;;;1.65;;
26325;SDS011;14032;52.510;7.342;2024-03-25T12:57:34;5.53;;;1.45;;
26325;SDS011;14032;52.510;7.342;2024-03-25T13:00:00;9.48;;;1.40;;
26325;SDS011;14032;52.510;7.342;2024-03-25T13:02:29;7.07;;;1.30;;
26325;SDS011;14032;52.510;7.342;2024-03-25T13:04:56;9.68;;;1.40;;
26325;SDS011;14032;52.510;7.342;2024-03-25T13:07:21;9.80;;;2.00;;
26325;SDS011;14032;52.510;7.342;2024-03-25T13:09:47;6.80;;;1.55;;
26325;SDS011;14032;52.510;7.342;2024-03-25T13:12:13;4.57;;;1.23;;
26325;SDS011;14032;52.510;7.342;2024-03-25T13:14:39;7.28;;;1.15;;
26325;SDS011;14032;52.510;7.342;2024-03-25T13:17:04;9.05;;;1.70;;
26325;SDS011;14032;52.510;7.342;2024-03-25T13:19:30;9.90;;;1.52;;
26325;SDS011;14032;52.510;7.342;2024-03-25T13:21:56;8.98;;;1.70;;
26325;SDS011;14032;52.510;7.342;2024-03-25T13:24:22;8.75;;;1.50;;
26325;SDS011;14032;52.510;7.342;2024-03-25T13:26:47;6.25;;;1.20;;
26325;SDS011;14032;52.510;7.342;2024-03-25T13:29:13;5.53;;;1.38;;
26325;SDS011;14032;52.510;7.342;2024-03-25T13:31:39;6.90;;;1.42;;
26325;SDS011;14032;52.510;7.342;2024-03-25T13:34:04;7.32;;;1.33;;
26325;SDS011;14032;52.510;7.342;2024-03-25T13:36:31;5.60;;;1.35;;
26325;SDS011;14032;52.510;7.342;2024-03-25T13:38:56;6.60;;;1.50;;
26325;SDS011;14032;52.510;7.342;2024-03-25T13:41:22;7.07;;;1.30;;
26325;SDS011;14032;52.510;7.342;2024-03-25T13:43:49;7.88;;;1.40;;
26325;SDS011;14032;52.510;7.342;2024-03-25T13:46:15;5.30;;;1.50;;
26325;SDS011;14032;52.510;7.342;2024-03-25T13:48:41;7.78;;;1.40;;
26325;SDS011;14032;52.510;7.342;2024-03-25T13:51:07;6.97;;;1.40;;
26325;SDS011;14032;52.510;7.342;2024-03-25T13:53:33;6.75;;;1.15;;
26325;SDS011;14032;52.510;7.342;2024-03-25T13:55:58;10.45;;;1.67;;
26325;SDS011;14032;52.510;7.342;2024-03-25T13:58:25;6.63;;;1.10;;
26325;SDS011;14032;52.510;7.342;2024-03-25T14:00:51;6.72;;;1.23;;
26325;SDS011;14032;52.510;7.342;2024-03-25T14:03:17;5.43;;;0.98;;
26325;SDS011;14032;52.510;7.342;2024-03-25T14:05:43;5.78;;;0.98;;
26325;SDS011;14032;52.510;7.342;2024-03-25T14:08:09;5.40;;;1.13;;
26325;SDS011;14032;52.510;7.342;2024-03-25T14:10:35;4.80;;;1.13;;
26325;SDS011;14032;52.510;7.342;2024-03-25T14:13:01;7.80;;;1.25;;
26325;SDS011;14032;52.510;7.342;2024-03-25T14:15:27;6.50;;;0.98;;
26325;SDS011;14032;52.510;7.342;2024-03-25T14:17:52;6.85;;;1.30;;
26325;SDS011;14032;52.510;7.342;2024-03-25T14:20:18;6.43;;;1.55;;
26325;SDS011;14032;52.510;7.342;2024-03-25T14:22:43;6.47;;;1.05;;
26325;SDS011;14032;52.510;7.342;2024-03-25T14:25:09;7.80;;;1.55;;
26325;SDS011;14032;52.510;7.342;2024-03-25T14:27:34;7.50;;;1.30;;
26325;SDS011;14032;52.510;7.342;2024-03-25T14:30:00;5.38;;;1.08;;
26325;SDS011;14032;52.510;7.342;2024-03-25T14:32:26;6.82;;;1.30;;
26325;SDS011;14032;52.510;7.342;2024-03-25T14:34:51;7.00;;;1.17;;
26325;SDS011;14032;52.510;7.342;2024-03-25T14:37:17;8.93;;;1.25;;
26325;SDS011;14032;52.510;7.342;2024-03-25T14:39:42;4.85;;;1.33;;
26325;SDS011;14032;52.510;7.342;2024-03-25T14:42:09;12.98;;;1.77;;